Time;durP1;ratioP1;P1;durP2;ratioP2;P2;SDS_P1;SDS_P2;PMS_P1;PMS_P2;Temp;Humidity;BMP_temperature;BMP_pressure;BME280_temperature;BME280_humidity;BME280_pressure;Samples;Min_cycle;Max_cycle;Signal;HPM_P1;HPM_P2
2021/01/18 14:22:22;;;;;;;4.85;3.65;;;;;;;8.24;67.24;100884.03;6402864;22;20390;-92
2021/01/18 14:24:48;;;;;;;5.63;3.80;;;;;;;6.86;67.10;100676.09;6374631;22;20033;-92
2021/01/18 14:27:14;;;;;;;6.43;3.90;;;;;;;8.18;67.36;100868.84;6373240;22;20387;-91
2021/01/18 14:29:40;;;;;;;6.43;4.10;;;;;;;8.36;66.87;100905.75;6372613;22;20022;-92
2021/01/18 14:32:08;;;;;;;6.18;4.38;;;;;;;5.01;66.92;100367.84;6372101;22;20314;-91
2021/01/18 14:34:35;;;;;;;5.95;3.97;;;;;;;4.48;66.70;100272.09;6373079;22;20018;-92
2021/01/18 14:37:01;;;;;;;5.78;4.03;;;;;;;8.55;67.52;100929.56;6400019;22;20754;-92
2021/01/18 14:39:29;;;;;;;8.02;4.15;;;;;;;4.35;66.90;100250.56;6371431;22;20404;-92
2021/01/18 14:41:55;;;;;;;5.50;3.70;;;;;;;6.90;67.15;100690.56;6370997;22;20026;-92
2021/01/18 14:44:21;;;;;;;4.80;3.38;;;;;;;6.52;66.59;100591.06;6371627;22;20067;-91
2021/01/18 14:46:47;;;;;;;6.10;3.80;;;;;;;6.16;66.45;100527.78;6400265;22;20028;-92
2021/01/18 14:49:14;;;;;;;4.63;3.45;;;;;;;4.87;66.47;100334.25;6372094;22;20441;-91
2021/01/18 14:51:40;;;;;;;6.80;3.38;;;;;;;4.46;66.55;100252.41;6371756;22;20025;-92
2021/01/18 14:54:06;;;;;;;4.80;3.50;;;;;;;7.23;66.82;100701.28;6399442;22;20022;-92
2021/01/18 14:56:36;;;;;;;4.47;3.05;;;;;;;8.39;66.79;100892.53;6372575;22;20036;-92
2021/01/18 14:59:05;;;;;;;4.28;3.53;;;;;;;5.33;66.55;100383.81;6371925;22;20022;-91
2021/01/18 15:01:33;;;;;;;4.35;3.28;;;;;;;8.54;67.12;100907.06;6372593;22;20070;-91
2021/01/18 15:03:59;;;;;;;3.15;2.78;;;;;;;8.44;66.94;100895.63;6371637;22;20018;-92
2021/01/18 15:06:27;;;;;;;4.45;2.95;;;;;;;6.96;66.63;100649.47;6372276;22;20432;-92
2021/01/18 15:08:54;;;;;;;3.60;3.00;;;;;;;8.65;66.81;100925.34;6371102;22;20018;-91
2021/01/18 15:11:22;;;;;;;4.47;3.20;;;;;;;8.44;67.11;100893.84;6401058;22;20022;-92
2021/01/18 15:13:49;;;;;;;3.90;2.50;;;;;;;8.08;66.62;100829.59;6399674;22;20467;-92
2021/01/18 15:16:16;;;;;;;3.03;2.53;;;;;;;8.66;66.88;100921.78;6372824;22;20381;-92
2021/01/18 15:18:42;;;;;;;3.55;2.72;;;;;;;8.66;66.51;100919.19;6372108;22;20026;-91
2021/01/18 15:21:09;;;;;;;3.13;2.65;;;;;;;8.66;66.70;100924.41;6371938;22;20025;-92
2021/01/18 15:23:36;;;;;;;4.68;3.13;;;;;;;8.66;66.69;100919.19;6371302;22;20078;-92
2021/01/18 15:26:02;;;;;;;4.28;2.63;;;;;;;8.44;66.59;100887.81;6372410;22;20041;-92
2021/01/18 15:28:29;;;;;;;3.92;2.72;;;;;;;8.16;66.71;100852.50;6399097;22;20022;-91
2021/01/18 15:30:55;;;;;;;5.22;3.03;;;;;;;8.55;66.27;100906.09;6371521;22;20071;-93
2021/01/18 15:33:21;;;;;;;6.47;3.33;;;;;;;6.99;66.53;100655.28;6371877;22;20045;-92
2021/01/18 15:35:49;;;;;;;3.35;2.90;;;;;;;8.10;66.62;100821.69;6371005;22;20499;-92
2021/01/18 15:38:15;;;;;;;4.03;2.92;;;;;;;7.24;66.62;100690.78;6371453;22;20096;-92
2021/01/18 15:40:42;;;;;;;3.85;3.17;;;;;;;8.10;66.40;100835.53;6372866;22;20465;-93
2021/01/18 15:43:08;;;;;;;3.38;2.95;;;;;;;6.91;66.38;100640.22;6371992;22;20514;-91
2021/01/18 15:45:35;;;;;;;3.63;2.58;;;;;;;8.00;66.18;100819.75;6372063;22;20006;-92
2021/01/18 15:48:01;;;;;;;3.13;2.75;;;;;;;8.37;66.82;100874.38;6372783;22;20386;-91
2021/01/18 15:50:27;;;;;;;3.35;2.90;;;;;;;8.10;66.30;100837.31;6372517;22;20096;-92
2021/01/18 15:52:53;;;;;;;4.00;3.10;;;;;;;7.79;66.53;100782.25;6371556;22;20341;-92
2021/01/18 15:55:19;;;;;;;3.03;2.72;;;;;;;8.16;66.64;100842.91;6372095;22;20026;-92
2021/01/18 15:57:45;;;;;;;3.35;2.97;;;;;;;8.30;66.59;100865.34;6370666;22;20441;-92
2021/01/18 16:00:13;;;;;;;4.13;2.75;;;;;;;6.75;66.77;100611.06;6371708;22;20392;-92
2021/01/18 16:02:40;;;;;;;4.57;2.50;;;;;;;8.20;66.22;100851.31;6373867;22;20471;-93
2021/01/18 16:05:15;;;;;;;4.53;2.90;;;;;;;8.62;66.50;100885.66;6374661;22;20018;-93
2021/01/18 16:07:43;;;;;;;3.47;2.53;;;;;;;8.43;66.49;100876.56;6374689;22;20074;-92
2021/01/18 16:10:11;;;;;;;4.72;2.67;;;;;;;8.52;66.65;100885.47;6374771;22;20022;-93
2021/01/18 16:12:38;;;;;;;3.17;2.58;;;;;;;8.36;66.42;100880.53;6374959;22;20025;-92
2021/01/18 16:15:05;;;;;;;3.03;2.40;;;;;;;8.27;66.62;100849.94;6374384;22;20063;-92
2021/01/18 16:17:32;;;;;;;3.13;2.25;;;;;;;6.31;66.41;100539.69;6374328;22;20352;-92
2021/01/18 16:19:59;;;;;;;3.17;2.40;;;;;;;4.85;66.23;100292.94;6374846;22;20093;-92
2021/01/18 16:22:25;;;;;;;3.13;2.83;;;;;;;6.41;66.50;100537.28;6374847;22;20018;-92
2021/01/18 16:24:52;;;;;;;3.08;2.58;;;;;;;8.65;66.93;100912.31;6374351;22;20010;-92
2021/01/18 16:27:18;;;;;;;3.10;2.72;;;;;;;8.65;66.99;100908.88;6374971;22;20382;-92
2021/01/18 16:29:44;;;;;;;3.45;3.15;;;;;;;8.42;66.78;100871.47;6374740;22;20018;-92
2021/01/18 16:32:10;;;;;;;3.80;2.85;;;;;;;8.13;66.44;100827.50;6376743;22;20026;-92
2021/01/18 16:34:37;;;;;;;3.50;2.80;;;;;;;8.65;66.71;100906.28;6376219;22;20020;-92
2021/01/18 16:37:06;;;;;;;4.32;3.25;;;;;;;7.89;66.62;100782.41;6376455;22;20022;-92
2021/01/18 16:39:33;;;;;;;3.80;3.40;;;;;;;7.33;66.45;100690.09;6376581;22;20021;-92
2021/01/18 16:42:00;;;;;;;3.95;3.35;;;;;;;6.98;67.01;100637.19;6404399;22;20383;-92
2021/01/18 16:44:27;;;;;;;5.05;3.10;;;;;;;8.33;66.69;100849.47;6375920;22;20022;-92
2021/01/18 16:47:01;;;;;;;4.40;3.38;;;;;;;8.61;66.87;100883.97;6376894;22;20379;-92
2021/01/18 16:49:33;;;;;;;4.47;3.40;;;;;;;8.60;66.97;100888.34;6377036;22;20613;-93
2021/01/18 16:52:00;;;;;;;3.42;3.10;;;;;;;6.82;66.47;100601.91;6376511;22;20025;-93
2021/01/18 16:54:31;;;;;;;4.55;3.30;;;;;;;7.99;66.81;100786.00;6376627;22;20095;-92
2021/01/18 16:56:58;;;;;;;6.95;3.55;;;;;;;7.83;66.25;100768.88;6376666;22;20083;-90
2021/01/18 16:59:24;;;;;;;4.40;3.53;;;;;;;8.09;67.14;100807.81;6375738;22;20485;-92
2021/01/18 17:01:59;;;;;;;5.45;3.60;;;;;;;8.48;66.90;100851.00;6376111;22;20056;-91
2021/01/18 17:04:27;;;;;;;4.18;3.67;;;;;;;8.57;66.95;100870.34;6376216;22;20025;-91
2021/01/18 17:06:54;;;;;;;4.72;3.92;;;;;;;7.28;66.84;100657.56;6376445;22;20047;-92
2021/01/18 17:09:21;;;;;;;5.70;3.63;;;;;;;5.06;66.40;100294.97;6375983;22;20028;-92
2021/01/18 17:11:48;;;;;;;5.43;3.60;;;;;;;7.20;66.43;100642.50;6403480;22;20083;-92
2021/01/18 17:14:15;;;;;;;5.13;3.50;;;;;;;8.13;67.34;100790.22;6376234;22;20024;-92
2021/01/18 17:16:41;;;;;;;3.90;3.28;;;;;;;6.35;66.46;100502.19;6375409;22;20514;-92
2021/01/18 17:19:08;;;;;;;5.47;3.58;;;;;;;8.29;66.79;100818.56;6376600;22;20023;-92
2021/01/18 17:21:34;;;;;;;5.22;3.78;;;;;;;8.72;66.86;100870.97;6376052;22;20025;-92
2021/01/18 17:24:00;;;;;;;5.00;3.60;;;;;;;8.71;66.95;100890.16;6376025;22;20101;-92
2021/01/18 17:26:29;;;;;;;4.57;3.80;;;;;;;8.56;66.84;100849.59;6375880;22;20018;-92
2021/01/18 17:28:56;;;;;;;6.38;3.92;;;;;;;7.52;67.03;100680.97;6375657;22;20041;-92
2021/01/18 17:31:30;;;;;;;4.95;3.60;;;;;;;8.85;66.91;100882.13;6375493;22;20025;-93
2021/01/18 17:33:56;;;;;;;4.75;3.20;;;;;;;8.16;66.90;100788.19;6403605;22;20017;-92
2021/01/18 17:36:24;;;;;;;5.35;3.35;;;;;;;7.19;66.95;100629.63;6375817;22;20014;-92
2021/01/18 17:38:50;;;;;;;6.15;3.70;;;;;;;8.63;66.90;100872.47;6374569;22;20029;-91
2021/01/18 17:41:16;;;;;;;4.95;3.53;;;;;;;6.89;66.75;100590.09;6375308;22;20066;-92
2021/01/18 17:43:42;;;;;;;7.50;4.43;;;;;;;7.21;67.12;100633.78;6375596;22;20029;-91
2021/01/18 17:46:09;;;;;;;6.82;3.30;;;;;;;7.10;66.96;100613.75;6375645;22;20025;-91
2021/01/18 17:48:35;;;;;;;5.25;3.30;;;;;;;8.75;66.77;100877.72;6403928;22;20017;-92
2021/01/18 17:51:02;;;;;;;5.13;3.22;;;;;;;8.76;67.19;100879.38;6375659;22;20014;-92
2021/01/18 17:53:28;;;;;;;5.78;3.35;;;;;;;8.16;67.15;100780.38;6376323;22;20018;-92
2021/01/18 17:55:54;;;;;;;5.07;3.05;;;;;;;8.29;66.91;100816.78;6376417;22;20341;-92
2021/01/18 17:58:21;;;;;;;5.70;3.22;;;;;;;8.54;67.00;100851.50;6375038;22;20018;-93
2021/01/18 18:00:47;;;;;;;4.93;3.35;;;;;;;7.79;66.86;100735.41;6375028;22;20017;-92
2021/01/18 18:03:13;;;;;;;5.90;3.25;;;;;;;8.47;67.27;100830.25;6376068;22;20079;-92
2021/01/18 18:05:46;;;;;;;5.10;3.13;;;;;;;6.11;66.71;100446.78;6375630;22;20021;-93
2021/01/18 18:08:13;;;;;;;6.05;3.75;;;;;;;8.10;66.81;100780.03;6375542;22;20028;-91
2021/01/18 18:10:39;;;;;;;5.90;3.25;;;;;;;8.57;67.34;100841.66;6375143;22;20018;-93
2021/01/18 18:13:05;;;;;;;6.13;3.05;;;;;;;8.43;66.92;100829.66;6375559;22;20021;-92
2021/01/18 18:15:31;;;;;;;5.95;3.35;;;;;;;8.61;66.83;100858.72;6376132;22;20022;-92
2021/01/18 18:17:58;;;;;;;4.43;2.92;;;;;;;8.50;67.40;100845.66;6375094;22;20025;-92
2021/01/18 18:20:26;;;;;;;6.47;3.42;;;;;;;8.63;67.13;100856.00;6375833;22;20018;-93
2021/01/18 18:22:52;;;;;;;6.28;3.65;;;;;;;8.62;66.69;100860.41;6375715;22;20100;-91
2021/01/18 18:25:19;;;;;;;5.85;3.00;;;;;;;8.62;67.11;100855.19;6375606;22;20368;-92
2021/01/18 18:27:47;;;;;;;4.65;3.28;;;;;;;8.00;66.72;100761.63;6374610;22;20017;-92
2021/01/18 18:30:16;;;;;;;7.38;3.70;;;;;;;8.76;67.40;100868.94;6375581;22;20040;-92
2021/01/18 18:32:49;;;;;;;4.78;3.10;;;;;;;8.98;67.17;100891.63;6402902;22;20014;-92
2021/01/18 18:35:15;;;;;;;4.25;2.80;;;;;;;8.75;66.75;100890.75;6374586;22;20021;-92
2021/01/18 18:37:41;;;;;;;5.20;3.28;;;;;;;8.67;66.96;100857.44;6375119;22;20437;-92
2021/01/18 18:40:08;;;;;;;9.23;3.30;;;;;;;8.88;66.94;100888.91;6374985;22;20379;-93
2021/01/18 18:42:34;;;;;;;5.03;3.42;;;;;;;8.67;66.41;100862.66;6375057;22;20091;-92
2021/01/18 18:45:02;;;;;;;5.30;2.85;;;;;;;8.48;66.50;100817.13;6364553;22;20086;-91
2021/01/18 18:47:33;;;;;;;6.40;3.50;;;;;;;8.76;67.24;100856.75;6369320;22;20025;-93
2021/01/18 18:50:00;;;;;;;7.13;2.92;;;;;;;8.68;66.84;100856.50;6370140;22;20390;-92
2021/01/18 18:52:26;;;;;;;7.40;3.70;;;;;;;8.57;66.63;100830.41;6374044;22;20021;-91
2021/01/18 18:54:54;;;;;;;4.95;3.30;;;;;;;8.75;66.92;100844.66;6373117;22;20014;-91
2021/01/18 18:57:25;;;;;;;5.40;3.30;;;;;;;8.99;66.76;100875.06;6370165;22;20071;-91
2021/01/18 18:59:51;;;;;;;6.05;3.30;;;;;;;6.73;66.56;100537.56;6371125;22;20048;-93
2021/01/18 19:02:17;;;;;;;4.72;3.08;;;;;;;8.73;66.65;100833.53;6373814;22;20021;-92
2021/01/18 19:04:44;;;;;;;6.05;3.40;;;;;;;7.45;66.78;100638.94;6401680;22;20014;-93
2021/01/18 19:07:10;;;;;;;5.03;3.08;;;;;;;8.79;66.79;100853.09;6373260;22;20037;-92
2021/01/18 19:09:37;;;;;;;6.20;2.90;;;;;;;8.91;66.97;100873.84;6374120;22;20026;-92
2021/01/18 19:12:05;;;;;;;6.47;2.72;;;;;;;8.57;66.81;100807.78;6373417;22;20048;-93
2021/01/18 19:14:32;;;;;;;7.30;3.47;;;;;;;7.09;66.59;100567.84;6374272;22;20045;-91
2021/01/18 19:16:59;;;;;;;5.63;2.95;;;;;;;8.35;66.80;100784.25;6373987;22;20109;-92
2021/01/18 19:19:27;;;;;;;5.55;3.10;;;;;;;8.89;66.88;100867.91;6374096;22;20096;-92
2021/01/18 19:21:53;;;;;;;7.15;2.70;;;;;;;8.71;66.68;100830.19;6374137;22;20018;-92
2021/01/18 19:24:20;;;;;;;3.83;2.80;;;;;;;8.35;66.95;100779.03;6374081;22;20601;-92
2021/01/18 19:26:52;;;;;;;5.90;3.30;;;;;;;8.53;66.76;100782.88;6373730;22;20014;-92
2021/01/18 19:29:22;;;;;;;4.88;2.70;;;;;;;8.73;66.72;100854.38;6372781;22;20045;-92
2021/01/18 19:31:48;;;;;;;3.85;2.67;;;;;;;8.43;66.61;100774.09;6368561;22;20485;-92
2021/01/18 19:34:15;;;;;;;6.43;3.28;;;;;;;8.95;66.79;100861.38;6373107;22;20038;-92
2021/01/18 19:36:41;;;;;;;5.25;3.22;;;;;;;8.74;66.53;100832.56;6372867;22;20014;-91
2021/01/18 19:39:11;;;;;;;5.30;2.80;;;;;;;8.66;66.88;100799.25;6373250;22;20374;-92
2021/01/18 19:41:38;;;;;;;6.05;2.83;;;;;;;8.42;66.62;100770.63;6374155;22;20078;-92
2021/01/18 19:44:07;;;;;;;4.40;2.65;;;;;;;8.80;66.90;100826.88;6373031;22;20561;-93
2021/01/18 19:46:36;;;;;;;6.95;3.55;;;;;;;8.99;66.83;100870.66;6370646;22;20045;-92
2021/01/18 19:49:03;;;;;;;5.78;3.15;;;;;;;8.97;66.97;100869.94;6368823;22;20026;-93
2021/01/18 19:51:32;;;;;;;5.85;3.28;;;;;;;8.96;66.63;100868.28;6374165;22;20505;-92
2021/01/18 19:54:01;;;;;;;6.57;3.30;;;;;;;7.66;66.31;100643.53;6400520;22;20038;-92
2021/01/18 19:56:27;;;;;;;5.53;3.53;;;;;;;7.52;65.94;100640.16;6372675;22;20100;-93
2021/01/18 19:58:55;;;;;;;3.65;2.85;;;;;;;6.06;66.19;100420.31;6373354;22;20024;-92
2021/01/18 20:01:23;;;;;;;4.22;2.83;;;;;;;8.62;66.43;100812.66;6373070;22;20071;-93
2021/01/18 20:03:52;;;;;;;5.80;3.13;;;;;;;8.78;66.28;100838.38;6372395;22;20017;-93
2021/01/18 20:06:19;;;;;;;5.30;3.10;;;;;;;5.40;66.06;100295.22;6374009;22;20045;-92
2021/01/18 20:08:55;;;;;;;7.60;3.28;;;;;;;9.07;66.75;100868.31;6403606;22;20731;-92
2021/01/18 20:11:28;;;;;;;8.27;3.63;;;;;;;8.61;66.48;100787.50;6374966;22;20025;-92
2021/01/18 20:13:55;;;;;;;7.03;3.45;;;;;;;8.98;66.52;100869.00;6374978;22;20736;-92
2021/01/18 20:16:22;;;;;;;6.50;3.42;;;;;;;9.00;66.74;100867.09;6374819;22;20029;-93
2021/01/18 20:18:56;;;;;;;6.32;3.35;;;;;;;8.85;66.68;100829.97;6374698;22;20047;-92
2021/01/18 20:21:23;;;;;;;8.50;3.78;;;;;;;8.29;66.42;100756.03;6374888;22;20497;-92
2021/01/18 20:23:51;;;;;;;8.00;3.67;;;;;;;8.99;66.19;100873.28;6372444;22;20050;-92
2021/01/18 20:26:17;;;;;;;7.22;4.68;;;;;;;8.81;66.25;100838.13;6374575;22;20018;-93
2021/01/18 20:28:44;;;;;;;6.35;3.35;;;;;;;7.21;66.16;100589.56;6375399;22;20014;-92
2021/01/18 20:31:11;;;;;;;5.78;3.72;;;;;;;6.78;66.25;100512.06;6374049;22;20026;-92
2021/01/18 20:33:40;;;;;;;5.97;3.67;;;;;;;8.33;66.52;100750.47;6402175;22;20452;-92
2021/01/18 20:36:09;;;;;;;4.82;3.25;;;;;;;6.89;66.23;100513.88;6374909;22;20025;-92
2021/01/18 20:38:36;;;;;;;6.28;3.38;;;;;;;8.78;66.66;100828.78;6375443;22;20045;-92
2021/01/18 20:41:03;;;;;;;6.38;2.88;;;;;;;8.14;66.55;100722.34;6375471;22;20043;-92
2021/01/18 20:43:29;;;;;;;7.57;2.88;;;;;;;8.78;66.65;100835.75;6374978;22;20790;-92
2021/01/18 20:45:56;;;;;;;4.60;3.03;;;;;;;8.88;66.32;100850.59;6374479;22;20051;-92
2021/01/18 20:48:22;;;;;;;6.72;3.20;;;;;;;8.99;66.35;100868.06;6375167;22;20078;-93
2021/01/18 20:50:50;;;;;;;8.13;3.33;;;;;;;8.69;66.20;100830.31;6375909;22;20041;-92
2021/01/18 20:53:17;;;;;;;4.95;2.90;;;;;;;8.42;66.47;100769.81;6374640;22;20038;-92
2021/01/18 20:55:43;;;;;;;8.55;3.10;;;;;;;8.60;66.45;100794.50;6374723;22;20021;-92
2021/01/18 20:58:10;;;;;;;6.47;3.00;;;;;;;6.73;65.84;100495.97;6375264;22;20074;-92
2021/01/18 21:00:37;;;;;;;5.18;2.80;;;;;;;8.55;66.24;100785.38;6402526;22;20026;-92
2021/01/18 21:03:07;;;;;;;6.03;2.95;;;;;;;6.16;65.79;100410.94;6374421;22;20018;-92
2021/01/18 21:05:34;;;;;;;5.80;3.17;;;;;;;8.70;66.03;100816.34;6374257;22;20018;-91
2021/01/18 21:08:01;;;;;;;5.53;2.88;;;;;;;7.54;66.26;100620.06;6375006;22;20022;-92
2021/01/18 21:10:28;;;;;;;4.40;2.60;;;;;;;7.64;66.06;100633.22;6375542;22;20022;-92
2021/01/18 21:12:54;;;;;;;5.25;2.50;;;;;;;8.71;65.78;100812.78;6401577;22;20014;-92
2021/01/18 21:15:21;;;;;;;5.97;2.55;;;;;;;5.77;65.38;100333.19;6374588;22;20344;-91
2021/01/18 21:17:47;;;;;;;5.55;2.35;;;;;;;9.01;65.95;100866.16;6374906;22;20022;-92
2021/01/18 21:20:15;;;;;;;5.05;2.58;;;;;;;9.00;65.86;100856.66;6374035;22;20042;-92
2021/01/18 21:22:46;;;;;;;4.93;2.50;;;;;;;8.57;65.83;100788.69;6373945;22;20017;-92
2021/01/18 21:25:18;;;;;;;3.75;2.38;;;;;;;8.87;65.91;100824.66;6374971;22;20067;-92
2021/01/18 21:27:46;;;;;;;5.35;2.78;;;;;;;9.01;66.11;100852.31;6374878;22;20021;-93
2021/01/18 21:30:15;;;;;;;6.90;2.42;;;;;;;8.82;66.04;100800.69;6374683;22;20498;-93
2021/01/18 21:32:45;;;;;;;6.88;2.70;;;;;;;8.98;65.60;100829.88;6373698;22;20059;-90
2021/01/18 21:35:11;;;;;;;6.10;2.78;;;;;;;8.18;65.75;100713.38;6400386;22;20093;-92
2021/01/18 21:37:42;;;;;;;5.28;2.50;;;;;;;9.04;65.99;100841.63;6401034;22;20026;-92
2021/01/18 21:40:10;;;;;;;4.88;2.72;;;;;;;9.02;65.97;100843.50;6374148;22;20498;-92
2021/01/18 21:42:42;;;;;;;5.15;2.60;;;;;;;9.09;66.26;100852.50;6373546;22;20018;-91
2021/01/18 21:45:10;;;;;;;4.88;2.90;;;;;;;8.69;65.93;100806.84;6373711;22;20071;-92
2021/01/18 21:47:43;;;;;;;6.13;2.88;;;;;;;8.83;65.72;100821.44;6373563;22;20098;-92
2021/01/18 21:50:10;;;;;;;5.75;2.55;;;;;;;7.63;65.57;100628.97;6374581;22;20022;-92
2021/01/18 21:52:37;;;;;;;4.18;2.45;;;;;;;6.79;65.44;100513.75;6374302;22;20322;-91
2021/01/18 21:55:06;;;;;;;3.90;2.50;;;;;;;7.54;65.97;100630.47;6374256;22;20053;-92
2021/01/18 21:57:33;;;;;;;4.78;2.40;;;;;;;8.81;65.91;100838.13;6374397;22;20070;-92
2021/01/18 22:00:00;;;;;;;4.45;2.38;;;;;;;6.82;65.81;100515.28;6374620;22;20026;-92
2021/01/18 22:02:26;;;;;;;5.10;2.40;;;;;;;8.88;66.11;100839.34;6372828;22;20426;-92
2021/01/18 22:04:52;;;;;;;3.83;2.45;;;;;;;8.43;66.55;100771.50;6373844;22;20026;-92
2021/01/18 22:07:18;;;;;;;2.95;2.25;;;;;;;8.96;66.27;100844.81;6374432;22;20022;-92
2021/01/18 22:09:44;;;;;;;4.80;2.42;;;;;;;8.37;66.32;100756.25;6373049;22;20022;-92
2021/01/18 22:12:10;;;;;;;5.53;2.90;;;;;;;6.58;65.40;100471.13;6374238;22;20074;-92
2021/01/18 22:14:36;;;;;;;5.53;2.75;;;;;;;8.24;66.31;100731.16;6373816;22;20026;-92
2021/01/18 22:17:02;;;;;;;4.93;2.30;;;;;;;8.79;66.04;100821.81;6373423;22;20017;-91
2021/01/18 22:19:28;;;;;;;3.70;2.47;;;;;;;8.26;65.90;100733.66;6373409;22;20041;-92
2021/01/18 22:21:57;;;;;;;5.07;2.72;;;;;;;8.51;65.96;100765.69;6373500;22;20386;-92
2021/01/18 22:24:23;;;;;;;4.53;2.38;;;;;;;8.87;66.13;100835.91;6372533;22;20037;-92
2021/01/18 22:26:51;;;;;;;5.50;3.00;;;;;;;8.92;66.36;100845.97;6374012;22;20010;-92
2021/01/18 22:29:18;;;;;;;5.57;3.20;;;;;;;8.28;65.79;100734.34;6374309;22;20022;-92
2021/01/18 22:31:45;;;;;;;3.85;2.45;;;;;;;8.98;65.72;100842.94;6374007;22;20018;-92
2021/01/18 22:34:11;;;;;;;4.03;2.63;;;;;;;8.64;66.17;100795.91;6374266;22;20041;-92
2021/01/18 22:36:37;;;;;;;5.35;2.63;;;;;;;8.83;66.08;100810.16;6374452;22;20041;-92
2021/01/18 22:39:06;;;;;;;4.82;2.33;;;;;;;8.77;65.90;100814.09;6373546;22;20525;-93
2021/01/18 22:41:37;;;;;;;5.32;2.65;;;;;;;9.00;65.81;100820.13;6375044;22;20078;-92
2021/01/18 22:44:05;;;;;;;3.72;2.50;;;;;;;8.66;65.71;100788.81;6373698;22;20386;-92
2021/01/18 22:46:31;;;;;;;3.85;2.60;;;;;;;8.22;65.67;100713.97;6372765;22;20054;-91
2021/01/18 22:48:57;;;;;;;4.95;2.47;;;;;;;8.87;65.64;100822.06;6373978;22;20018;-92
2021/01/18 22:51:23;;;;;;;6.35;3.00;;;;;;;8.70;66.00;100792.88;6374299;22;20025;-91
2021/01/18 22:53:49;;;;;;;6.63;2.95;;;;;;;8.71;65.98;100788.47;6374487;22;20021;-92
2021/01/18 22:56:17;;;;;;;7.13;2.85;;;;;;;8.98;65.90;100836.84;6374856;22;20021;-92
2021/01/18 22:58:44;;;;;;;4.07;2.78;;;;;;;8.66;66.13;100788.81;6374293;22;20022;-92
2021/01/18 23:01:10;;;;;;;4.93;2.75;;;;;;;8.57;65.53;100781.69;6373517;22;20362;-92
2021/01/18 23:03:38;;;;;;;4.18;2.72;;;;;;;8.94;65.79;100818.00;6373849;22;20051;-92
2021/01/18 23:06:04;;;;;;;4.70;2.97;;;;;;;9.00;66.09;100833.19;6373133;22;20066;-92
2021/01/18 23:08:30;;;;;;;3.13;2.40;;;;;;;7.91;66.01;100655.53;6374710;22;20073;-91
2021/01/18 23:10:56;;;;;;;3.42;2.58;;;;;;;8.81;66.06;100797.28;6374235;22;20017;-92
2021/01/18 23:13:23;;;;;;;4.70;2.60;;;;;;;8.80;65.82;100803.41;6374093;22;20033;-92
2021/01/18 23:15:49;;;;;;;3.92;2.40;;;;;;;8.45;65.74;100739.16;6375237;22;20461;-92
2021/01/18 23:18:15;;;;;;;3.22;2.55;;;;;;;8.89;66.13;100815.75;6373504;22;20021;-91
2021/01/18 23:20:41;;;;;;;3.67;2.45;;;;;;;9.02;65.78;100830.47;6374214;22;20026;-91
2021/01/18 23:23:07;;;;;;;3.38;2.42;;;;;;;8.80;65.68;100781.72;6400828;22;20049;-92
2021/01/18 23:25:33;;;;;;;3.75;2.67;;;;;;;8.73;65.58;100783.13;6374514;22;20018;-91
2021/01/18 23:28:00;;;;;;;4.78;2.53;;;;;;;8.70;65.66;100774.63;6374583;22;20022;-91
2021/01/18 23:30:26;;;;;;;4.78;2.63;;;;;;;8.77;65.91;100826.28;6373923;22;20025;-91
2021/01/18 23:32:52;;;;;;;15.15;3.10;;;;;;;8.95;65.92;100809.22;6374372;22;20074;-92
2021/01/18 23:35:19;;;;;;;4.63;3.20;;;;;;;5.56;65.00;100259.47;6374302;22;20021;-91
2021/01/18 23:37:46;;;;;;;3.95;2.63;;;;;;;6.00;65.42;100343.69;6402314;22;20047;-93
2021/01/18 23:40:13;;;;;;;4.60;2.50;;;;;;;5.95;65.35;100340.59;6375068;22;20445;-93
2021/01/18 23:42:39;;;;;;;3.40;2.13;;;;;;;8.78;65.61;100786.22;6375360;22;20044;-92
2021/01/18 23:45:07;;;;;;;3.20;2.55;;;;;;;8.92;65.51;100814.69;6376561;22;20070;-91
2021/01/18 23:47:33;;;;;;;3.25;2.50;;;;;;;8.99;65.87;100799.41;6376425;22;20053;-91
2021/01/18 23:49:59;;;;;;;3.53;2.50;;;;;;;7.41;65.71;100543.03;6375949;22;20467;-91
2021/01/18 23:52:33;;;;;;;5.57;3.00;;;;;;;9.13;65.84;100793.94;6376033;22;20021;-92
2021/01/18 23:54:59;;;;;;;4.65;2.75;;;;;;;8.71;66.04;100757.19;6376094;22;20106;-92
2021/01/18 23:57:25;;;;;;;5.22;2.90;;;;;;;8.82;65.87;100782.44;6375840;22;20092;-91
2021/01/18 23:59:51;;;;;;;3.92;2.88;;;;;;;7.41;65.70;100530.84;6375414;22;20021;-92
